sensor_id;sensor_type;location;lat;lon;timestamp;P1;durP1;ratioP1;P2;durP2;ratioP2
46407;SDS011;32110;45.724;21.276;2023-01-01T00:02:21;30.48;;;17.00;;
46407;SDS011;32110;45.724;21.276;2023-01-01T00:04:46;28.48;;;16.55;;
46407;SDS011;32110;45.724;21.276;2023-01-01T00:07:13;32.58;;;17.42;;
46407;SDS011;32110;45.724;21.276;2023-01-01T00:09:38;31.10;;;17.55;;
46407;SDS011;32110;45.724;21.276;2023-01-01T00:12:22;33.03;;;18.05;;
46407;SDS011;32110;45.724;21.276;2023-01-01T00:14:47;32.95;;;17.35;;
46407;SDS011;32110;45.724;21.276;2023-01-01T00:17:13;34.40;;;18.52;;
46407;SDS011;32110;45.724;21.276;2023-01-01T00:19:38;32.83;;;18.45;;
46407;SDS011;32110;45.724;21.276;2023-01-01T00:22:03;34.72;;;18.80;;
46407;SDS011;32110;45.724;21.276;2023-01-01T00:24:29;33.10;;;17.98;;
46407;SDS011;32110;45.724;21.276;2023-01-01T00:26:54;34.47;;;17.45;;
46407;SDS011;32110;45.724;21.276;2023-01-01T00:29:19;35.55;;;19.52;;
46407;SDS011;32110;45.724;21.276;2023-01-01T00:31:45;33.10;;;17.95;;
46407;SDS011;32110;45.724;21.276;2023-01-01T00:34:10;33.10;;;18.83;;
46407;SDS011;32110;45.724;21.276;2023-01-01T00:36:36;29.77;;;17.67;;
46407;SDS011;32110;45.724;21.276;2023-01-01T00:39:01;32.90;;;18.98;;
46407;SDS011;32110;45.724;21.276;2023-01-01T00:41:27;35.85;;;19.92;;
46407;SDS011;32110;45.724;21.276;2023-01-01T00:43:53;34.83;;;19.40;;
46407;SDS011;32110;45.724;21.276;2023-01-01T00:46:18;40.75;;;22.45;;
46407;SDS011;32110;45.724;21.276;2023-01-01T00:48:44;47.65;;;23.98;;
46407;SDS011;32110;45.724;21.276;2023-01-01T00:51:09;44.30;;;24.67;;
46407;SDS011;32110;45.724;21.276;2023-01-01T00:53:35;46.40;;;24.58;;
46407;SDS011;32110;45.724;21.276;2023-01-01T00:56:01;45.28;;;26.08;;
46407;SDS011;32110;45.724;21.276;2023-01-01T00:58:26;46.38;;;25.15;;
46407;SDS011;32110;45.724;21.276;2023-01-01T01:00:52;51.25;;;27.02;;
46407;SDS011;32110;45.724;21.276;2023-01-01T01:03:18;53.40;;;27.65;;
46407;SDS011;32110;45.724;21.276;2023-01-01T01:05:57;53.38;;;28.98;;
46407;SDS011;32110;45.724;21.276;2023-01-01T01:10:48;59.30;;;29.17;;
46407;SDS011;32110;45.724;21.276;2023-01-01T01:13:14;60.20;;;30.27;;
46407;SDS011;32110;45.724;21.276;2023-01-01T01:15:39;63.40;;;31.25;;
46407;SDS011;32110;45.724;21.276;2023-01-01T01:18:05;60.42;;;31.48;;
46407;SDS011;32110;45.724;21.276;2023-01-01T01:20:30;57.42;;;29.13;;
46407;SDS011;32110;45.724;21.276;2023-01-01T01:22:55;52.80;;;29.23;;
46407;SDS011;32110;45.724;21.276;2023-01-01T01:25:21;59.13;;;29.92;;
46407;SDS011;32110;45.724;21.276;2023-01-01T01:27:46;55.50;;;30.35;;
46407;SDS011;32110;45.724;21.276;2023-01-01T01:30:11;56.80;;;29.63;;
46407;SDS011;32110;45.724;21.276;2023-01-01T01:32:37;55.17;;;28.98;;
46407;SDS011;32110;45.724;21.276;2023-01-01T01:35:02;55.65;;;28.77;;
46407;SDS011;32110;45.724;21.276;2023-01-01T01:37:28;57.05;;;28.85;;
46407;SDS011;32110;45.724;21.276;2023-01-01T01:39:53;56.47;;;28.73;;
46407;SDS011;32110;45.724;21.276;2023-01-01T01:42:19;57.42;;;30.20;;
46407;SDS011;32110;45.724;21.276;2023-01-01T01:47:27;58.38;;;30.17;;
46407;SDS011;32110;45.724;21.276;2023-01-01T01:50:12;59.03;;;29.98;;
46407;SDS011;32110;45.724;21.276;2023-01-01T01:52:43;58.85;;;31.75;;
46407;SDS011;32110;45.724;21.276;2023-01-01T01:55:18;66.57;;;32.58;;
46407;SDS011;32110;45.724;21.276;2023-01-01T01:57:44;68.57;;;34.28;;
46407;SDS011;32110;45.724;21.276;2023-01-01T02:00:10;71.60;;;34.50;;
46407;SDS011;32110;45.724;21.276;2023-01-01T02:02:38;67.40;;;34.92;;
46407;SDS011;32110;45.724;21.276;2023-01-01T02:05:10;65.00;;;35.15;;
46407;SDS011;32110;45.724;21.276;2023-01-01T02:07:36;75.38;;;35.22;;
46407;SDS011;32110;45.724;21.276;2023-01-01T02:10:02;67.50;;;34.35;;
46407;SDS011;32110;45.724;21.276;2023-01-01T02:12:27;67.50;;;34.00;;
46407;SDS011;32110;45.724;21.276;2023-01-01T02:14:53;66.75;;;35.40;;
46407;SDS011;32110;45.724;21.276;2023-01-01T02:17:30;73.45;;;34.90;;
46407;SDS011;32110;45.724;21.276;2023-01-01T02:25:24;71.80;;;37.08;;
46407;SDS011;32110;45.724;21.276;2023-01-01T02:30:48;71.35;;;35.85;;
46407;SDS011;32110;45.724;21.276;2023-01-01T02:33:17;63.47;;;34.63;;
46407;SDS011;32110;45.724;21.276;2023-01-01T02:35:55;63.28;;;32.78;;
46407;SDS011;32110;45.724;21.276;2023-01-01T02:40:50;58.92;;;31.92;;
46407;SDS011;32110;45.724;21.276;2023-01-01T02:43:20;66.22;;;32.08;;
46407;SDS011;32110;45.724;21.276;2023-01-01T02:45:46;61.80;;;31.38;;
46407;SDS011;32110;45.724;21.276;2023-01-01T02:50:59;55.13;;;29.88;;
46407;SDS011;32110;45.724;21.276;2023-01-01T02:53:32;63.38;;;30.80;;
46407;SDS011;32110;45.724;21.276;2023-01-01T03:07:05;53.25;;;30.02;;
46407;SDS011;32110;45.724;21.276;2023-01-01T03:10:21;53.28;;;29.02;;
46407;SDS011;32110;45.724;21.276;2023-01-01T03:12:36;87.20;;;42.85;;
46407;SDS011;32110;45.724;21.276;2023-01-01T03:17:37;58.72;;;30.13;;
46407;SDS011;32110;45.724;21.276;2023-01-01T03:20:20;55.17;;;30.53;;
46407;SDS011;32110;45.724;21.276;2023-01-01T03:22:52;56.80;;;28.63;;
46407;SDS011;32110;45.724;21.276;2023-01-01T03:25:27;55.25;;;28.27;;
46407;SDS011;32110;45.724;21.276;2023-01-01T03:27:58;56.78;;;27.98;;
46407;SDS011;32110;45.724;21.276;2023-01-01T03:30:32;52.28;;;27.52;;
46407;SDS011;32110;45.724;21.276;2023-01-01T03:33:10;52.67;;;27.05;;
46407;SDS011;32110;45.724;21.276;2023-01-01T03:35:45;51.33;;;26.98;;
46407;SDS011;32110;45.724;21.276;2023-01-01T03:38:39;55.08;;;28.30;;
46407;SDS011;32110;45.724;21.276;2023-01-01T03:41:13;54.90;;;28.98;;
46407;SDS011;32110;45.724;21.276;2023-01-01T03:44:02;53.47;;;28.27;;
46407;SDS011;32110;45.724;21.276;2023-01-01T03:46:32;56.33;;;28.65;;
46407;SDS011;32110;45.724;21.276;2023-01-01T03:48:59;55.70;;;31.60;;
46407;SDS011;32110;45.724;21.276;2023-01-01T03:51:31;50.03;;;27.58;;
46407;SDS011;32110;45.724;21.276;2023-01-01T03:56:57;48.50;;;26.05;;
46407;SDS011;32110;45.724;21.276;2023-01-01T03:59:34;50.90;;;26.33;;
46407;SDS011;32110;45.724;21.276;2023-01-01T04:02:07;46.50;;;26.20;;
46407;SDS011;32110;45.724;21.276;2023-01-01T04:04:37;51.10;;;26.83;;
46407;SDS011;32110;45.724;21.276;2023-01-01T04:07:03;50.65;;;26.60;;
46407;SDS011;32110;45.724;21.276;2023-01-01T04:09:29;47.42;;;24.42;;
46407;SDS011;32110;45.724;21.276;2023-01-01T04:11:57;47.00;;;24.90;;
46407;SDS011;32110;45.724;21.276;2023-01-01T04:14:27;46.20;;;24.27;;
46407;SDS011;32110;45.724;21.276;2023-01-01T04:16:55;46.42;;;24.50;;
46407;SDS011;32110;45.724;21.276;2023-01-01T04:19:21;41.63;;;22.73;;
46407;SDS011;32110;45.724;21.276;2023-01-01T04:21:46;52.22;;;23.73;;
46407;SDS011;32110;45.724;21.276;2023-01-01T04:24:12;49.13;;;24.08;;
46407;SDS011;32110;45.724;21.276;2023-01-01T04:26:38;55.92;;;29.05;;
46407;SDS011;32110;45.724;21.276;2023-01-01T04:29:04;61.90;;;30.92;;
46407;SDS011;32110;45.724;21.276;2023-01-01T04:31:29;53.53;;;29.40;;
46407;SDS011;32110;45.724;21.276;2023-01-01T04:33:54;46.58;;;27.02;;
46407;SDS011;32110;45.724;21.276;2023-01-01T04:36:20;47.90;;;25.35;;
46407;SDS011;32110;45.724;21.276;2023-01-01T04:38:45;47.85;;;23.98;;
46407;SDS011;32110;45.724;21.276;2023-01-01T04:41:10;48.95;;;24.88;;
46407;SDS011;32110;45.724;21.276;2023-01-01T04:43:36;44.90;;;23.60;;
46407;SDS011;32110;45.724;21.276;2023-01-01T04:46:02;42.83;;;23.75;;
46407;SDS011;32110;45.724;21.276;2023-01-01T04:48:28;42.60;;;23.27;;
46407;SDS011;32110;45.724;21.276;2023-01-01T04:50:59;38.33;;;20.98;;
46407;SDS011;32110;45.724;21.276;2023-01-01T04:53:28;42.00;;;21.38;;
46407;SDS011;32110;45.724;21.276;2023-01-01T04:55:54;41.30;;;20.77;;
46407;SDS011;32110;45.724;21.276;2023-01-01T04:58:20;38.53;;;21.40;;
46407;SDS011;32110;45.724;21.276;2023-01-01T05:00:49;39.05;;;19.60;;
46407;SDS011;32110;45.724;21.276;2023-01-01T05:03:16;42.88;;;21.40;;
46407;SDS011;32110;45.724;21.276;2023-01-01T05:05:41;40.38;;;20.05;;
46407;SDS011;32110;45.724;21.276;2023-01-01T05:08:07;36.03;;;19.00;;
46407;SDS011;32110;45.724;21.276;2023-01-01T05:10:32;36.97;;;18.85;;
46407;SDS011;32110;45.724;21.276;2023-01-01T05:12:57;37.05;;;18.83;;
46407;SDS011;32110;45.724;21.276;2023-01-01T05:15:23;36.10;;;18.58;;
46407;SDS011;32110;45.724;21.276;2023-01-01T05:17:48;35.63;;;18.88;;
46407;SDS011;32110;45.724;21.276;2023-01-01T05:20:13;37.28;;;19.65;;
46407;SDS011;32110;45.724;21.276;2023-01-01T05:22:39;37.45;;;19.25;;
46407;SDS011;32110;45.724;21.276;2023-01-01T05:25:04;35.67;;;19.20;;
46407;SDS011;32110;45.724;21.276;2023-01-01T05:27:30;34.17;;;18.88;;
46407;SDS011;32110;45.724;21.276;2023-01-01T05:29:55;36.60;;;18.88;;
46407;SDS011;32110;45.724;21.276;2023-01-01T05:32:21;34.67;;;19.13;;
46407;SDS011;32110;45.724;21.276;2023-01-01T05:34:46;32.33;;;18.38;;
46407;SDS011;32110;45.724;21.276;2023-01-01T05:37:12;35.42;;;18.70;;
46407;SDS011;32110;45.724;21.276;2023-01-01T05:39:37;33.70;;;18.55;;
46407;SDS011;32110;45.724;21.276;2023-01-01T05:42:02;35.83;;;17.10;;
46407;SDS011;32110;45.724;21.276;2023-01-01T05:44:28;35.58;;;17.67;;
46407;SDS011;32110;45.724;21.276;2023-01-01T05:46:53;32.22;;;18.30;;
46407;SDS011;32110;45.724;21.276;2023-01-01T05:49:19;31.25;;;18.35;;
46407;SDS011;32110;45.724;21.276;2023-01-01T05:51:44;30.17;;;16.40;;
46407;SDS011;32110;45.724;21.276;2023-01-01T05:54:09;36.38;;;17.40;;
46407;SDS011;32110;45.724;21.276;2023-01-01T05:56:35;31.75;;;18.05;;
46407;SDS011;32110;45.724;21.276;2023-01-01T05:59:00;32.63;;;17.23;;
46407;SDS011;32110;45.724;21.276;2023-01-01T06:01:27;32.72;;;17.48;;
46407;SDS011;32110;45.724;21.276;2023-01-01T06:03:54;34.30;;;18.20;;
46407;SDS011;32110;45.724;21.276;2023-01-01T06:06:24;32.70;;;17.98;;
46407;SDS011;32110;45.724;21.276;2023-01-01T06:08:57;32.78;;;17.80;;
46407;SDS011;32110;45.724;21.276;2023-01-01T06:11:24;31.73;;;17.88;;
46407;SDS011;32110;45.724;21.276;2023-01-01T06:13:51;35.92;;;18.73;;
46407;SDS011;32110;45.724;21.276;2023-01-01T06:16:18;32.67;;;18.17;;
46407;SDS011;32110;45.724;21.276;2023-01-01T06:18:44;40.17;;;18.20;;
46407;SDS011;32110;45.724;21.276;2023-01-01T06:21:10;35.42;;;19.13;;
46407;SDS011;32110;45.724;21.276;2023-01-01T06:23:38;33.83;;;18.35;;
46407;SDS011;32110;45.724;21.276;2023-01-01T06:26:14;36.33;;;17.80;;
46407;SDS011;32110;45.724;21.276;2023-01-01T06:28:41;38.78;;;18.35;;
46407;SDS011;32110;45.724;21.276;2023-01-01T06:31:08;34.42;;;17.85;;
46407;SDS011;32110;45.724;21.276;2023-01-01T06:33:35;31.48;;;18.05;;
46407;SDS011;32110;45.724;21.276;2023-01-01T06:36:03;35.13;;;17.83;;
46407;SDS011;32110;45.724;21.276;2023-01-01T06:38:34;33.88;;;18.92;;
46407;SDS011;32110;45.724;21.276;2023-01-01T06:41:03;37.67;;;18.05;;
46407;SDS011;32110;45.724;21.276;2023-01-01T06:43:31;37.03;;;19.08;;
46407;SDS011;32110;45.724;21.276;2023-01-01T06:45:58;33.30;;;18.25;;
46407;SDS011;32110;45.724;21.276;2023-01-01T06:48:28;37.95;;;19.38;;
46407;SDS011;32110;45.724;21.276;2023-01-01T06:50:54;33.03;;;18.70;;
46407;SDS011;32110;45.724;21.276;2023-01-01T06:53:22;42.47;;;20.50;;
46407;SDS011;32110;45.724;21.276;2023-01-01T06:55:48;39.17;;;20.50;;
46407;SDS011;32110;45.724;21.276;2023-01-01T06:58:14;38.67;;;21.20;;
46407;SDS011;32110;45.724;21.276;2023-01-01T07:00:39;37.00;;;20.52;;
46407;SDS011;32110;45.724;21.276;2023-01-01T07:03:04;40.45;;;19.77;;
46407;SDS011;32110;45.724;21.276;2023-01-01T07:05:30;41.85;;;20.55;;
46407;SDS011;32110;45.724;21.276;2023-01-01T07:07:55;77.78;;;25.17;;
46407;SDS011;32110;45.724;21.276;2023-01-01T07:10:20;43.50;;;21.90;;
46407;SDS011;32110;45.724;21.276;2023-01-01T07:12:46;39.65;;;20.15;;
46407;SDS011;32110;45.724;21.276;2023-01-01T07:15:11;32.05;;;17.98;;
46407;SDS011;32110;45.724;21.276;2023-01-01T07:17:37;33.47;;;16.95;;
46407;SDS011;32110;45.724;21.276;2023-01-01T07:20:02;30.45;;;17.42;;
46407;SDS011;32110;45.724;21.276;2023-01-01T07:22:28;34.20;;;16.00;;
46407;SDS011;32110;45.724;21.276;2023-01-01T07:24:53;31.20;;;16.50;;
46407;SDS011;32110;45.724;21.276;2023-01-01T07:27:18;30.60;;;15.95;;
46407;SDS011;32110;45.724;21.276;2023-01-01T07:29:43;31.23;;;16.08;;
46407;SDS011;32110;45.724;21.276;2023-01-01T07:32:11;45.63;;;21.50;;
46407;SDS011;32110;45.724;21.276;2023-01-01T07:34:37;48.30;;;23.33;;
46407;SDS011;32110;45.724;21.276;2023-01-01T07:37:03;41.80;;;20.95;;
46407;SDS011;32110;45.724;21.276;2023-01-01T07:39:28;34.55;;;18.30;;
46407;SDS011;32110;45.724;21.276;2023-01-01T07:41:53;35.35;;;19.48;;
46407;SDS011;32110;45.724;21.276;2023-01-01T07:44:19;33.95;;;17.90;;
46407;SDS011;32110;45.724;21.276;2023-01-01T07:46:44;36.40;;;20.05;;
46407;SDS011;32110;45.724;21.276;2023-01-01T07:49:10;43.10;;;21.95;;
46407;SDS011;32110;45.724;21.276;2023-01-01T07:51:35;36.95;;;20.88;;
46407;SDS011;32110;45.724;21.276;2023-01-01T07:54:00;43.20;;;21.25;;
46407;SDS011;32110;45.724;21.276;2023-01-01T07:56:26;39.28;;;20.40;;
46407;SDS011;32110;45.724;21.276;2023-01-01T07:58:51;38.03;;;19.05;;
46407;SDS011;32110;45.724;21.276;2023-01-01T08:01:16;36.72;;;19.10;;
46407;SDS011;32110;45.724;21.276;2023-01-01T08:03:43;33.50;;;18.33;;
46407;SDS011;32110;45.724;21.276;2023-01-01T08:06:09;29.35;;;16.05;;
46407;SDS011;32110;45.724;21.276;2023-01-01T08:08:36;31.33;;;17.15;;
46407;SDS011;32110;45.724;21.276;2023-01-01T08:11:01;32.63;;;17.05;;
46407;SDS011;32110;45.724;21.276;2023-01-01T08:13:27;32.20;;;17.13;;
46407;SDS011;32110;45.724;21.276;2023-01-01T08:15:52;31.13;;;16.98;;
46407;SDS011;32110;45.724;21.276;2023-01-01T08:18:19;30.85;;;16.77;;
46407;SDS011;32110;45.724;21.276;2023-01-01T08:20:45;33.35;;;17.67;;
46407;SDS011;32110;45.724;21.276;2023-01-01T08:23:10;29.45;;;16.83;;
46407;SDS011;32110;45.724;21.276;2023-01-01T08:25:38;30.00;;;16.92;;
46407;SDS011;32110;45.724;21.276;2023-01-01T08:28:04;30.10;;;15.93;;
46407;SDS011;32110;45.724;21.276;2023-01-01T08:30:29;33.35;;;18.05;;
46407;SDS011;32110;45.724;21.276;2023-01-01T08:32:54;28.08;;;16.33;;
46407;SDS011;32110;45.724;21.276;2023-01-01T08:35:20;31.70;;;16.83;;
46407;SDS011;32110;45.724;21.276;2023-01-01T08:37:45;30.58;;;16.38;;
46407;SDS011;32110;45.724;21.276;2023-01-01T08:40:11;29.90;;;16.35;;
46407;SDS011;32110;45.724;21.276;2023-01-01T08:42:37;27.77;;;15.85;;
46407;SDS011;32110;45.724;21.276;2023-01-01T08:45:02;27.42;;;15.18;;
46407;SDS011;32110;45.724;21.276;2023-01-01T08:47:28;25.48;;;14.38;;
46407;SDS011;32110;45.724;21.276;2023-01-01T08:49:53;24.70;;;14.63;;
46407;SDS011;32110;45.724;21.276;2023-01-01T08:52:18;28.00;;;15.13;;
46407;SDS011;32110;45.724;21.276;2023-01-01T08:54:43;25.30;;;15.25;;
46407;SDS011;32110;45.724;21.276;2023-01-01T08:57:09;27.50;;;14.55;;
46407;SDS011;32110;45.724;21.276;2023-01-01T08:59:34;24.65;;;14.68;;
46407;SDS011;32110;45.724;21.276;2023-01-01T09:01:59;29.90;;;15.57;;
46407;SDS011;32110;45.724;21.276;2023-01-01T09:04:25;26.70;;;14.73;;
46407;SDS011;32110;45.724;21.276;2023-01-01T09:06:50;25.60;;;15.57;;
46407;SDS011;32110;45.724;21.276;2023-01-01T09:09:16;26.35;;;15.15;;
46407;SDS011;32110;45.724;21.276;2023-01-01T09:11:48;28.52;;;14.43;;
46407;SDS011;32110;45.724;21.276;2023-01-01T09:14:27;27.08;;;15.02;;
46407;SDS011;32110;45.724;21.276;2023-01-01T09:16:53;25.50;;;13.60;;
46407;SDS011;32110;45.724;21.276;2023-01-01T09:19:19;25.98;;;14.05;;
46407;SDS011;32110;45.724;21.276;2023-01-01T09:21:44;26.77;;;14.80;;
46407;SDS011;32110;45.724;21.276;2023-01-01T09:24:09;21.40;;;13.45;;
46407;SDS011;32110;45.724;21.276;2023-01-01T09:26:35;22.83;;;13.52;;
46407;SDS011;32110;45.724;21.276;2023-01-01T09:29:00;26.08;;;14.25;;
46407;SDS011;32110;45.724;21.276;2023-01-01T09:31:25;25.10;;;14.50;;
46407;SDS011;32110;45.724;21.276;2023-01-01T09:33:51;27.83;;;14.38;;
46407;SDS011;32110;45.724;21.276;2023-01-01T09:38:48;27.27;;;13.80;;
46407;SDS011;32110;45.724;21.276;2023-01-01T09:44:02;24.50;;;13.25;;
46407;SDS011;32110;45.724;21.276;2023-01-01T09:46:48;24.55;;;12.80;;
46407;SDS011;32110;45.724;21.276;2023-01-01T09:52:11;23.48;;;12.85;;
46407;SDS011;32110;45.724;21.276;2023-01-01T09:54:39;22.35;;;12.68;;
46407;SDS011;32110;45.724;21.276;2023-01-01T09:57:15;21.75;;;12.23;;
46407;SDS011;32110;45.724;21.276;2023-01-01T09:59:41;19.10;;;12.40;;
46407;SDS011;32110;45.724;21.276;2023-01-01T10:17:47;22.17;;;12.20;;
46407;SDS011;32110;45.724;21.276;2023-01-01T10:20:20;18.85;;;11.68;;
46407;SDS011;32110;45.724;21.276;2023-01-01T10:22:58;19.08;;;11.02;;
46407;SDS011;32110;45.724;21.276;2023-01-01T10:25:29;17.45;;;11.00;;
46407;SDS011;32110;45.724;21.276;2023-01-01T10:27:58;19.85;;;10.50;;
46407;SDS011;32110;45.724;21.276;2023-01-01T10:30:26;17.85;;;10.60;;
46407;SDS011;32110;45.724;21.276;2023-01-01T10:32:53;15.30;;;10.07;;
46407;SDS011;32110;45.724;21.276;2023-01-01T10:35:21;21.40;;;10.02;;
46407;SDS011;32110;45.724;21.276;2023-01-01T10:37:54;17.75;;;10.60;;
46407;SDS011;32110;45.724;21.276;2023-01-01T10:40:21;18.55;;;10.95;;
46407;SDS011;32110;45.724;21.276;2023-01-01T10:42:49;16.63;;;10.27;;
46407;SDS011;32110;45.724;21.276;2023-01-01T10:45:17;17.63;;;10.88;;
46407;SDS011;32110;45.724;21.276;2023-01-01T10:55:49;15.82;;;10.23;;
46407;SDS011;32110;45.724;21.276;2023-01-01T11:01:08;21.13;;;10.88;;
46407;SDS011;32110;45.724;21.276;2023-01-01T11:03:36;17.05;;;9.82;;
46407;SDS011;32110;45.724;21.276;2023-01-01T11:06:08;17.13;;;9.60;;
46407;SDS011;32110;45.724;21.276;2023-01-01T11:08:45;19.40;;;10.20;;
46407;SDS011;32110;45.724;21.276;2023-01-01T11:11:25;20.77;;;10.65;;
46407;SDS011;32110;45.724;21.276;2023-01-01T11:13:52;15.63;;;9.65;;
46407;SDS011;32110;45.724;21.276;2023-01-01T11:16:20;15.60;;;9.80;;
46407;SDS011;32110;45.724;21.276;2023-01-01T11:18:46;16.33;;;9.63;;
46407;SDS011;32110;45.724;21.276;2023-01-01T11:21:18;11.95;;;9.02;;
46407;SDS011;32110;45.724;21.276;2023-01-01T11:23:46;14.65;;;9.43;;
46407;SDS011;32110;45.724;21.276;2023-01-01T11:28:41;14.52;;;8.95;;
46407;SDS011;32110;45.724;21.276;2023-01-01T11:31:11;16.98;;;9.23;;
46407;SDS011;32110;45.724;21.276;2023-01-01T11:36:25;12.57;;;8.82;;
46407;SDS011;32110;45.724;21.276;2023-01-01T11:41:47;14.75;;;8.60;;
46407;SDS011;32110;45.724;21.276;2023-01-01T11:47:04;13.85;;;8.95;;
46407;SDS011;32110;45.724;21.276;2023-01-01T11:49:31;14.25;;;8.50;;
46407;SDS011;32110;45.724;21.276;2023-01-01T11:51:57;13.02;;;8.63;;
46407;SDS011;32110;45.724;21.276;2023-01-01T11:54:24;13.43;;;8.55;;
46407;SDS011;32110;45.724;21.276;2023-01-01T11:56:54;13.75;;;8.43;;
46407;SDS011;32110;45.724;21.276;2023-01-01T11:59:26;14.02;;;8.73;;
46407;SDS011;32110;45.724;21.276;2023-01-01T12:02:07;13.57;;;7.80;;
46407;SDS011;32110;45.724;21.276;2023-01-01T12:07:21;11.90;;;7.70;;
46407;SDS011;32110;45.724;21.276;2023-01-01T12:15:19;13.48;;;8.65;;
46407;SDS011;32110;45.724;21.276;2023-01-01T12:20:41;13.77;;;7.30;;
46407;SDS011;32110;45.724;21.276;2023-01-01T12:23:12;12.63;;;7.63;;
46407;SDS011;32110;45.724;21.276;2023-01-01T12:25:42;13.98;;;8.02;;
46407;SDS011;32110;45.724;21.276;2023-01-01T12:40:43;11.30;;;7.22;;
46407;SDS011;32110;45.724;21.276;2023-01-01T12:54:01;10.10;;;6.63;;
46407;SDS011;32110;45.724;21.276;2023-01-01T12:56:36;13.05;;;6.68;;
46407;SDS011;32110;45.724;21.276;2023-01-01T12:59:05;13.38;;;6.95;;
46407;SDS011;32110;45.724;21.276;2023-01-01T13:01:36;9.77;;;6.72;;
46407;SDS011;32110;45.724;21.276;2023-01-01T13:06:39;9.23;;;6.60;;
46407;SDS011;32110;45.724;21.276;2023-01-01T13:09:19;8.32;;;5.93;;
46407;SDS011;32110;45.724;21.276;2023-01-01T13:11:48;11.52;;;6.72;;
46407;SDS011;32110;45.724;21.276;2023-01-01T13:14:16;8.57;;;5.70;;
46407;SDS011;32110;45.724;21.276;2023-01-01T13:16:44;13.02;;;6.90;;
46407;SDS011;32110;45.724;21.276;2023-01-01T13:19:34;10.98;;;5.93;;
46407;SDS011;32110;45.724;21.276;2023-01-01T13:36:06;11.73;;;6.43;;
46407;SDS011;32110;45.724;21.276;2023-01-01T13:51:50;10.57;;;6.50;;
46407;SDS011;32110;45.724;21.276;2023-01-01T14:02:23;7.80;;;5.95;;
46407;SDS011;32110;45.724;21.276;2023-01-01T14:04:59;8.68;;;5.85;;
46407;SDS011;32110;45.724;21.276;2023-01-01T14:10:14;10.65;;;6.22;;
46407;SDS011;32110;45.724;21.276;2023-01-01T14:12:45;9.20;;;5.85;;
46407;SDS011;32110;45.724;21.276;2023-01-01T14:15:30;9.65;;;6.03;;
46407;SDS011;32110;45.724;21.276;2023-01-01T14:17:56;14.48;;;6.75;;
46407;SDS011;32110;45.724;21.276;2023-01-01T14:20:25;9.00;;;6.20;;
46407;SDS011;32110;45.724;21.276;2023-01-01T14:22:50;13.02;;;7.43;;
46407;SDS011;32110;45.724;21.276;2023-01-01T14:25:24;12.60;;;6.35;;
46407;SDS011;32110;45.724;21.276;2023-01-01T14:27:51;11.10;;;6.13;;
46407;SDS011;32110;45.724;21.276;2023-01-01T14:30:19;13.18;;;6.50;;
46407;SDS011;32110;45.724;21.276;2023-01-01T14:32:44;14.02;;;6.22;;
46407;SDS011;32110;45.724;21.276;2023-01-01T14:35:10;11.38;;;6.00;;
46407;SDS011;32110;45.724;21.276;2023-01-01T14:37:39;11.45;;;5.90;;
46407;SDS011;32110;45.724;21.276;2023-01-01T14:42:36;10.32;;;6.57;;
46407;SDS011;32110;45.724;21.276;2023-01-01T14:45:02;9.75;;;6.47;;
46407;SDS011;32110;45.724;21.276;2023-01-01T14:47:30;12.48;;;6.95;;
46407;SDS011;32110;45.724;21.276;2023-01-01T14:50:02;11.93;;;7.13;;
46407;SDS011;32110;45.724;21.276;2023-01-01T14:52:34;11.60;;;7.28;;
46407;SDS011;32110;45.724;21.276;2023-01-01T14:54:59;11.68;;;7.93;;
46407;SDS011;32110;45.724;21.276;2023-01-01T14:57:31;14.77;;;8.10;;
46407;SDS011;32110;45.724;21.276;2023-01-01T14:59:59;25.75;;;8.02;;
46407;SDS011;32110;45.724;21.276;2023-01-01T15:02:28;14.38;;;8.35;;
46407;SDS011;32110;45.724;21.276;2023-01-01T15:04:57;12.85;;;7.82;;
46407;SDS011;32110;45.724;21.276;2023-01-01T15:07:38;15.63;;;8.77;;
46407;SDS011;32110;45.724;21.276;2023-01-01T15:10:03;13.13;;;8.32;;
46407;SDS011;32110;45.724;21.276;2023-01-01T15:12:29;20.85;;;10.02;;
46407;SDS011;32110;45.724;21.276;2023-01-01T15:14:58;16.77;;;10.07;;
46407;SDS011;32110;45.724;21.276;2023-01-01T15:17:24;19.75;;;11.43;;
46407;SDS011;32110;45.724;21.276;2023-01-01T15:22:26;22.17;;;12.98;;
46407;SDS011;32110;45.724;21.276;2023-01-01T15:24:57;23.63;;;13.32;;
46407;SDS011;32110;45.724;21.276;2023-01-01T15:27:28;22.63;;;9.80;;
46407;SDS011;32110;45.724;21.276;2023-01-01T15:29:55;17.70;;;9.40;;
46407;SDS011;32110;45.724;21.276;2023-01-01T15:32:32;16.88;;;9.93;;
46407;SDS011;32110;45.724;21.276;2023-01-01T15:35:03;17.23;;;9.57;;
46407;SDS011;32110;45.724;21.276;2023-01-01T15:37:35;15.13;;;9.43;;
46407;SDS011;32110;45.724;21.276;2023-01-01T15:42:40;25.75;;;14.88;;
46407;SDS011;32110;45.724;21.276;2023-01-01T15:51:11;43.95;;;23.15;;
46407;SDS011;32110;45.724;21.276;2023-01-01T15:53:21;37.63;;;21.20;;
46407;SDS011;32110;45.724;21.276;2023-01-01T15:55:53;34.92;;;19.90;;
46407;SDS011;32110;45.724;21.276;2023-01-01T16:01:18;36.03;;;21.48;;
46407;SDS011;32110;45.724;21.276;2023-01-01T16:03:46;43.20;;;21.45;;
46407;SDS011;32110;45.724;21.276;2023-01-01T16:06:17;41.55;;;22.73;;
46407;SDS011;32110;45.724;21.276;2023-01-01T16:08:45;35.88;;;21.80;;
46407;SDS011;32110;45.724;21.276;2023-01-01T16:11:11;38.55;;;20.95;;
46407;SDS011;32110;45.724;21.276;2023-01-01T16:13:37;38.53;;;22.45;;
46407;SDS011;32110;45.724;21.276;2023-01-01T16:16:02;34.03;;;21.20;;
46407;SDS011;32110;45.724;21.276;2023-01-01T16:18:35;31.80;;;20.08;;
46407;SDS011;32110;45.724;21.276;2023-01-01T16:21:02;31.92;;;20.05;;
46407;SDS011;32110;45.724;21.276;2023-01-01T16:23:29;33.13;;;18.98;;
46407;SDS011;32110;45.724;21.276;2023-01-01T16:25:55;30.88;;;18.45;;
46407;SDS011;32110;45.724;21.276;2023-01-01T16:28:20;30.55;;;17.30;;
46407;SDS011;32110;45.724;21.276;2023-01-01T16:30:46;32.90;;;18.73;;
46407;SDS011;32110;45.724;21.276;2023-01-01T16:33:15;30.20;;;18.70;;
46407;SDS011;32110;45.724;21.276;2023-01-01T16:35:43;30.17;;;20.00;;
46407;SDS011;32110;45.724;21.276;2023-01-01T16:38:08;44.92;;;25.30;;
46407;SDS011;32110;45.724;21.276;2023-01-01T16:40:34;40.78;;;22.92;;
46407;SDS011;32110;45.724;21.276;2023-01-01T16:42:59;34.55;;;21.52;;
46407;SDS011;32110;45.724;21.276;2023-01-01T16:45:25;71.15;;;36.38;;
46407;SDS011;32110;45.724;21.276;2023-01-01T16:47:50;75.75;;;38.13;;
46407;SDS011;32110;45.724;21.276;2023-01-01T16:50:16;103.85;;;48.25;;
46407;SDS011;32110;45.724;21.276;2023-01-01T16:52:42;116.93;;;49.92;;
46407;SDS011;32110;45.724;21.276;2023-01-01T16:55:08;110.78;;;46.40;;
46407;SDS011;32110;45.724;21.276;2023-01-01T16:57:33;66.55;;;34.40;;
46407;SDS011;32110;45.724;21.276;2023-01-01T16:59:59;53.70;;;30.45;;
46407;SDS011;32110;45.724;21.276;2023-01-01T17:02:25;93.68;;;44.70;;
46407;SDS011;32110;45.724;21.276;2023-01-01T17:04:52;94.78;;;47.80;;
46407;SDS011;32110;45.724;21.276;2023-01-01T17:07:17;90.28;;;44.83;;
46407;SDS011;32110;45.724;21.276;2023-01-01T17:09:43;68.53;;;34.72;;